Terminal Aerodrome Forecast
Issued by NWS Billings, MT

Home | Current Version | Previous Version | Text Only | Print | Product List | Glossary On
Versions: 1 2 3 4 5 6 7 8 9 10 11 12 13 14 15 16 17 18 19 20 21 22 23 24 25 26 27 28 29 30 31 32
378
FTUS45 KBYZ 202329
TAFMLS
TAF
KMLS 202329Z 2100/2124 25016G26KT P6SM VCSH SCT120 BKN200
     FM210200 21010KT P6SM SCT100
     FM210700 30015KT P6SM FEW200=

USA.gov is the U.S. government's official web portal to all federal, state and local government web resources and services.